TP Sprint Vila Verdesáb 09/11/2019 17:53
Resultscreated by OE2010 © Stephan Krämer SportSoftware 2017

 
Fácil Curto (6)1,0 km 10 m12 C
PlStnoNameYBClubTime
16576AntonyLeyser06[166] ADM Ori-Mondego8:38
290163Carolina Queirós09[6593] ESCarlosAmarante12:51
390177Gil Ehrhardt102 .COM16:10
490178Gabriel Pinto[1564] Individual POR17:11
56577Silvani Silva72[166] ADM Ori-Mondego23:40
626514Anabela Gomes69[133] GDU Azoia24:44
 
 
 
Fácil Longo (8)2,5 km 35 m13 C
PlStnoNameYBClubTime
190170DiogoG+IsaacC[11691] ESVV27:30
290169JoséS+ JoséG+LuísL[11691] ESVV37:11
35405Sónia Pereira78[116] Montepio Geral37:36
490166BeatrizS+MariaG MarianaM[11691] ESVV50:03
590167BrunaV+FláviaF LilianaC[11691] ESVV50:23
690164AnaC+DomingosA FátimaM+VanessaS[11691] ESVV51:31
 
90165AnaG+CarolinaB DianaG[11691] ESVVdnf
90168HugoA+MªG+NunoG[11691] ESVVdns
 
 
 
Difícil Longo (7)2,5 km 35 m13 C
PlStnoNameYBClubTime
190000Paulo Assis86[056] Natura18:02
290173Ricardo Vaz[8299] AEPBS-Joane21:25
36594Ricardo Augusto79[056] Natura21:26
490002Daniela Silva82[056] Natura27:33
590176Simone+ Lucas[1564] Individual POR35:14
690175Carlos Cruz[1564] Individual POR35:21
790172Ivone Ferreira72[133] GDU Azoia47:13
 
 
 
D10 (8)1,0 km 10 m12 C
PlStnoNameYBClubTime
15333Juliana Pedro11[107] CAOS10:25
26550Matilde Nazário10[007] Ori-Estarreja12:53
36551Beatriz Nazário14[007] Ori-Estarreja13:57
45941Inês Pedro14[107] CAOS14:29
56000Benedita13[007] Ori-Estarreja14:48
690052Diana Silva09[8299] AEPBS-Joane14:49
 
6641Maria Patrocínio09[007] Ori-Estarrejadnf
6520Clara Lima10[070] COCdns
 
 
 
H10 (2)1,0 km 10 m12 C
PlStnoNameYBClubTime
190079Martim Azevedo09[8299] AEPBS-Joane14:36
290069Rodrigo Marques10[8299] AEPBS-Joane15:15
 
 
 
D12 (11)1,6 km 15 m13 C
PlStnoNameYBClubTime
190040Lara Lopes08[11688] Oriented Aguiar13:30
290064Beatriz Pimenta07[8299] AEPBS-Joane17:18
390020Ana Matilde Silva08[6593] ESCarlosAmarante18:43
46404Maria Leonor08[070] COC19:22
590089Luísa Araújo08[8299] AEPBS-Joane20:50
690038Leonor Costa07[11688] Oriented Aguiar21:20
790042Ana Maria Teixeira08[11688] Oriented Aguiar27:10
890081Leonor Pereira08[8299] AEPBS-Joane31:48
990061Beatriz Oliveira08[8299] AEPBS-Joane45:44
1090057Ana Lima08[8299] AEPBS-Joane49:43
 
90049Diana Carvalho08[8299] AEPBS-Joanemp
 
 
 
H12 (7)1,6 km 15 m13 C
PlStnoNameYBClubTime
16187João Cruz07[007] Ori-Estarreja11:36
290144Luís Peixoto07[6593] ESCarlosAmarante11:54
36506João Maia08[085] A Montanha13:44
490174Francisco Correia07[11688] Oriented Aguiar16:10
590149Tomás Sampaio08[8299] AEPBS-Joane53:39
 
6451Sérgio Gomes07[052] GD4Cdns
90047David Costa08[8299] AEPBS-Joanedns
 
 
 
D14 (18)1,6 km 30 m13 C
PlStnoNameYBClubTime
190086Mariana Diogo05[8299] AEPBS-Joane14:02
26505Rita Maia06[085] A Montanha15:48
390062Bruna Campos06[8299] AEPBS-Joane15:49
46515Joana Canana06[133] GDU Azoia16:20
590026Alexandra Serra Campos06[6593] ESCarlosAmarante17:24
690074Sofia Pimenta06[8299] AEPBS-Joane18:33
76522Sofia Pulquério06[133] GDU Azoia18:38
890043Ana Filipa Costa06[8299] AEPBS-Joane20:03
990059Beatriz Cruz06[8299] AEPBS-Joane20:37
1090055Carolina Mota06[8299] AEPBS-Joane21:21
1190016Marta Queirós06[6593] ESCarlosAmarante21:59
1290143Débora Oliveira05[6593] ESCarlosAmarante22:03
136057Maria Cruz05[007] Ori-Estarreja24:41
 
90018Marta Maurício05[6593] ESCarlosAmarantemp
90010Leonor Oliveira06[5644] EBJúlioSaúlDiasmp
90077Rafaela Teixeira05[8299] AEPBS-Joanedns
6579Antónia Brito05[085] A Montanhadns
90024Inês Vila Boa06[6593] ESCarlosAmarantedns
 
 
 
H14 (21)2,0 km 35 m11 C
PlStnoNameYBClubTime
16203João ferreira05[007] Ori-Estarreja12:04
26227Tiago Gomes05[133] GDU Azoia13:14
36536Miguel Trindade05[007] Ori-Estarreja13:41
425899Guilherme Clímaco05[133] GDU Azoia14:59
56595João Augusto05[056] Natura15:22
66642Pedro Patrocínio07[007] Ori-Estarreja15:24
790145Gabriel Marques05[8299] AEPBS-Joane15:42
86211João Gomes05[052] GD4C15:47
96497Gonçalo Sousa05[052] GD4C15:52
106335Rúben Pereira05[052] GD4C18:07
1190067Gustavo Araújo05[8299] AEPBS-Joane18:59
126359Manuel Monteiro05[085] A Montanha20:26
134222João Pedro07[107] CAOS20:29
146449Rodrigo Fonseca05[007] Ori-Estarreja21:09
1590025Jaime Patrocinio06[6593] ESCarlosAmarante25:56
 
90066Gabriel Silva05[8299] AEPBS-Joanemp
nc90030André Costa05[11688] Oriented Aguiar16:33
nc90032Marco Barranha06[11688] Oriented Aguiar21:14
nc90036Lucas Coelho07[11688] Oriented Aguiar35:46
6299André Barros05[052] GD4Cdns
90073Rui Oliveira06[8299] AEPBS-Joanedns
 
 
 
D16 (9)2,0 km 35 m11 C
PlStnoNameYBClubTime
16402Nadine Silva03[052] GD4C14:41
26584Beatriz Barreto04[085] A Montanha16:07
390085Maria Martins03[8299] AEPBS-Joane17:20
46400Daniela Faria03[052] GD4C17:46
590075Sara Araújo03[8299] AEPBS-Joane20:12
690087Mariana Azevedo03[8299] AEPBS-Joane21:14
790053Catarina Araújo04[8299] AEPBS-Joane24:44
890083Helena Dias04[8299] AEPBS-Joane27:19
990045Cristiana Nogueira04[8299] AEPBS-Joane40:12
 
 
 
H16 (20)2,3 km 45 m12 C
PlStnoNameYBClubTime
16164Rodrigo Lima04[085] A Montanha14:51
290091Tiago Silva04[6593] ESCarlosAmarante14:58
36210Pedro Viana03[052] GD4C15:43
490017Gabriel Vilaça04[6593] ESCarlosAmarante15:51
56401João Rodrigues03[052] GD4C16:13
65997Pedro Pereira03[139] GDE16:17
790090Rafael Rodrigues04[8299] AEPBS-Joane16:53
890014Nuno Almeida04[6593] ESCarlosAmarante17:31
96065Diogo Neto04[056] Natura17:43
1090050Francisco Oliveira03[8299] AEPBS-Joane18:15
1190021Ricardo Quintas04[6593] ESCarlosAmarante18:24
1290084Luís Azevedo03[8299] AEPBS-Joane18:47
1390012João Lencastre04[6593] ESCarlosAmarante18:57
1490006Gonçalo Pereira05[11004] ESDAS19:55
155714João Sá04[116] Montepio Geral20:23
1690028Killian Oliveira04[6593] ESCarlosAmarante20:34
1790022Alexandre Zhang03[6593] ESCarlosAmarante22:08
1890008José Porfírio04[11004] ESDAS22:28
 
90013Guilherme Cruz04[6593] ESCarlosAmarantemp
6408Raúl Azevedo04[052] GD4Cdns
 
 
 
D18 (10)2,3 km 45 m12 C
PlStnoNameYBClubTime
190023Ana Beatriz Silva02[6593] ESCarlosAmarante19:52
290150Beatriz Meireles02[6593] ESCarlosAmarante20:09
390019Ana Pacheco03[6593] ESCarlosAmarante20:13
46457Ana Viana01[052] GD4C21:23
55751Clara Costa02[139] GDE21:29
65739Carina Castro01[007] Ori-Estarreja24:55
76606Adriana Martins01[183] AEPBS-Joane+27:14
 
nc5811Ana Nunes01[094] CPOC21:21
90015Inês Augusto02[6593] ESCarlosAmarantedns
6217Mafalda Lima02[085] A Montanhadns
 
 
 
H18 (8)2,8 km17 C
PlStnoNameYBClubTime
125299André Roberto02[070] COC18:18
26334Fábio Baptista02[085] A Montanha19:40
35598Afonso Fernandes01[137] LCM20:23
490027André Serra Campos02[6593] ESCarlosAmarante21:42
56286José Vieira Maia02[085] A Montanha23:01
690071Rui Machado02[8299] AEPBS-Joane29:33
76160Artur Cunha02[085] A Montanha31:07
 
nc90034Rui Pais01[11688] Oriented Aguiar25:58
 
 
 
D20 (2)2,3 km 50 m14 C
PlStnoNameYBClubTime
126508Sofia Meireles00[166] ADM Ori-Mondego20:05
25443Filipa Castro99[007] Ori-Estarreja23:48
 
 
 
H20 (3)2,8 km17 C
PlStnoNameYBClubTime
15510Pedro Barbosa Silva00[007] Ori-Estarreja18:47
26173José Dinis00[052] GD4C19:15
35488André Henriques00[007] Ori-Estarreja20:16
 
 
 
DE (5)2,3 km 50 m14 C
PlStnoNameYBClubTime
14112Inês Pinto92[052] GD4C15:28
23975Helena Lima99[070] COC16:32
35138Joana Marques98[007] Ori-Estarreja19:29
43060Patricia Casalinho87[070] COC21:14
54277Inês Alves96[052] GD4C23:12
 
 
 
HE (13)2,8 km17 C
PlStnoNameYBClubTime
14495Tiago Gingão Leal90[052] GD4C15:33
24103Rafael Miguel93[007] Ori-Estarreja16:35
36445António Pires90[052] GD4C17:29
45061Manuel Lopes96[090] ADFA18:19
56618Alex Vincho96[052] GD4C18:37
62969Domingos Martins89[052] GD4C18:38
73954Goncalo Pirrolas96[090] ADFA18:42
85820Márcio Gouveia79[137] LCM18:51
912668Gildo Silva85[070] COC20:07
104016Miguel Nobrega89[056] Natura20:36
113684Rui Martins89[056] Natura21:05
125185Rui Oliveira95[007] Ori-Estarreja21:45
 
1811Luis Leite76[052] GD4Cdns
 
 
 
D21A (9)2,1 km 25 m13 C
PlStnoNameYBClubTime
15388Susana Almeida93[056] Natura14:33
26261Sofia Inácio92[073] CMo Funchal15:25
326236Anabela André81[119] OriMarão16:02
46087Carla Macedo88[056] Natura16:12
54333Sónia Silva75[139] GDE16:28
63720Ines Aires92[007] Ori-Estarreja16:35
74693Sofia Pinto94[056] Natura16:57
84375Joana Moutela81[007] Ori-Estarreja19:55
91490Cristina Nazário83[007] Ori-Estarreja20:46
 
 
 
H21A (6)2,5 km 35 m13 C
PlStnoNameYBClubTime
15267Filipe Fernandes97[137] LCM14:30
26272Ricardo Lopes89[056] Natura15:19
325796Bruno André81[119] OriMarão17:38
45980Rafael Silva87[056] Natura18:12
55925Pedro Tiago Gomes90[159] COAAL18:54
64779Daniel Cruz98[007] Ori-Estarreja19:12
 
 
 
D21B (4)1,8 km 20 m13 C
PlStnoNameYBClubTime
16516M Jesus Leão66[133] GDU Azoia15:51
26439Fátima Olival99[137] LCM19:20
36632Sílvia77[070] COC19:22
46409Cristina Torcato93[007] Ori-Estarreja21:57
 
 
 
H21B (3)2,1 km 25 m13 C
PlStnoNameYBClubTime
16403Mário Moreira77[070] COC14:51
21315João Amorim78[007] Ori-Estarreja14:53
34778Tiago Mota93[007] Ori-Estarreja16:22
 
 
 
D35 (3)2,5 km 35 m13 C
PlStnoNameYBClubTime
16446Raquel Ferreira80[052] GD4C16:27
23467Helena Sousa67[119] OriMarão19:38
324901Carla Amorim79[166] ADM Ori-Mondego22:15
 
 
 
H35 (5)2,3 km 50 m14 C
PlStnoNameYBClubTime
123887Pedro Rama84[166] ADM Ori-Mondego16:14
25410Noel Valadão78[166] ADM Ori-Mondego16:20
36527Vasco Vinhas83[052] GD4C16:54
41721Bruno Nazário80[007] Ori-Estarreja17:13
523593Jose Pereira78[005] CP Armada18:25
 
 
 
D40 (5)1,9 km 30 m12 C
PlStnoNameYBClubTime
16406Paula Goncalves75[052] GD4C17:04
22561Ângela Pedro79[107] CAOS18:57
34587Ana Margarida Vaz76[007] Ori-Estarreja19:10
42582Anabela Vieito67[070] COC20:09
 
22936Anabela Freitas72[085] A Montanhadns
 
 
 
H40 (12)2,5 km 35 m13 C
PlStnoNameYBClubTime
12562Nuno Pedro79[107] CAOS16:14
24101Jorge Marques73[052] GD4C16:23
31050Daniel Filipe78[007] Ori-Estarreja16:50
46399Fernando Silva74[052] GD4C18:22
54685José João Ferreira74[119] OriMarão18:46
61325Nuno Rebelo79[007] Ori-Estarreja19:46
76298José Barros Maia74[085] A Montanha20:01
82950José Marco79[167] NAST20:15
93936Norberto Henriques77[070] COC20:24
1015892Rui Pedro Amaral79[070] COC21:03
114298Luís Gomes*76[073] CMo Funchal24:28
 
6450Cristiano Gomes75[052] GD4Cdns
 
 
 
D45 (3)1,9 km 30 m12 C
PlStnoNameYBClubTime
13134Manuela Nogueira69[007] Ori-Estarreja17:15
25280Carmo Silva67[007] Ori-Estarreja17:47
31039Margarida Maria71[007] Ori-Estarreja28:24
 
 
 
H45 (9)2,3 km 40 m13 C
PlStnoNameYBClubTime
11457António Amador68[007] Ori-Estarreja15:52
24059Miguel Sá71[116] Montepio Geral18:19
36226José Gomes74[133] GDU Azoia19:21
43913Alberto César70[052] GD4C19:41
53408Nuno Pires74[007] Ori-Estarreja20:08
66263Ricardo Silva70[007] Ori-Estarreja20:21
73081Alberto Barros69[052] GD4C26:38
 
5092Fernando Soares69[166] ADM Ori-Mondegodns
2999António Batista69[115] ATVdns
 
 
 
D50 (1)2,3 km 45 m12 C
PlStnoNameYBClubTime
1952Isabel Monteiro58[070] COCdns
 
 
 
H50 (5)2,0 km 45 m12 C
PlStnoNameYBClubTime
11302Rafael Lima68[070] COC14:58
22156Nuno Gonçalves66[137] LCM16:02
31937Tozé Silva66[070] COC18:02
41407Luís Quinta-Nova66[090] ADFA18:13
 
2593Vítor Delgado67[052] GD4Cdisq
 
 
 
D55 (3)2,0 km 35 m11 C
PlStnoNameYBClubTime
112129Luísa Mateus58[070] COC18:43
 
5695Luísa Gaboleiro63[133] GDU Azoiamp
2689Lucília Esteves60[085] A Montanhadns
 
 
 
H55 (7)2,0 km 45 m12 C
PlStnoNameYBClubTime
16509Jadir Pereira64[166] ADM Ori-Mondego17:17
214656José Bolrão64[070] COC19:08
32592João Alves61[052] GD4C20:26
42905Manuel Delgado61[052] GD4C21:20
53007José Mário Baptista62[052] GD4C21:22
65354Noel Cabeça64[133] GDU Azoia21:48
 
nc90004Eugénio Grilo60[1564] Individual POR18:23
 
 
 
D60 (2)1,6 km 30 m13 C
PlStnoNameYBClubTime
11640Fernanda Ferreira55[168] CAB18:17
22410Margarida Rocha55[052] GD4C20:37
 
 
 
H60 (2)2,0 km 45 m12 C
PlStnoNameYBClubTime
11931Carlos Monteiro58[070] COC18:01
21190Carlos Ferreira56[168] CAB22:13
 
 
 
H65 (1)1,8 km 20 m13 C
PlStnoNameYBClubTime
1048Altino Silva51[007] Ori-Estarrejadns
 
 
 
H70 (1)1,6 km 20 m11 C
PlStnoNameYBClubTime
11441Gil Rua48[007] Ori-Estarreja13:45
 
 
 
H75 (1)1,6 km 20 m11 C
PlStnoNameYBClubTime
11149Armandino Cramez42[007] Ori-Estarreja17:38